sensor_id;sensor_type;location;lat;lon;timestamp;P1;durP1;ratioP1;P2;durP2;ratioP2
73154;SDS011;61364;52.418;7.382;2022-12-10T00:01:03;46.34;;;44.00;;
73154;SDS011;61364;52.418;7.382;2022-12-10T00:03:29;48.65;;;46.13;;
73154;SDS011;61364;52.418;7.382;2022-12-10T00:05:55;47.04;;;44.07;;
73154;SDS011;61364;52.418;7.382;2022-12-10T00:08:24;46.30;;;43.64;;
73154;SDS011;61364;52.418;7.382;2022-12-10T00:10:50;44.21;;;41.69;;
73154;SDS011;61364;52.418;7.382;2022-12-10T00:13:28;46.42;;;43.38;;
73154;SDS011;61364;52.418;7.382;2022-12-10T00:15:54;44.86;;;42.37;;
73154;SDS011;61364;52.418;7.382;2022-12-10T00:20:56;45.41;;;43.29;;
73154;SDS011;61364;52.418;7.382;2022-12-10T00:23:22;44.95;;;42.51;;
73154;SDS011;61364;52.418;7.382;2022-12-10T00:25:48;54.87;;;50.89;;
73154;SDS011;61364;52.418;7.382;2022-12-10T00:28:22;109.88;;;95.36;;
73154;SDS011;61364;52.418;7.382;2022-12-10T00:30:47;80.43;;;72.19;;
73154;SDS011;61364;52.418;7.382;2022-12-10T00:36:08;41.60;;;39.76;;
73154;SDS011;61364;52.418;7.382;2022-12-10T00:38:35;41.86;;;39.98;;
73154;SDS011;61364;52.418;7.382;2022-12-10T00:41:02;42.28;;;40.05;;
73154;SDS011;61364;52.418;7.382;2022-12-10T00:43:28;54.60;;;50.49;;
73154;SDS011;61364;52.418;7.382;2022-12-10T00:45:54;45.90;;;42.92;;
73154;SDS011;61364;52.418;7.382;2022-12-10T00:48:26;45.32;;;41.92;;
73154;SDS011;61364;52.418;7.382;2022-12-10T00:50:56;46.78;;;42.91;;
73154;SDS011;61364;52.418;7.382;2022-12-10T00:53:23;43.05;;;40.69;;
73154;SDS011;61364;52.418;7.382;2022-12-10T00:55:49;44.77;;;41.97;;
73154;SDS011;61364;52.418;7.382;2022-12-10T00:58:14;57.54;;;52.87;;
73154;SDS011;61364;52.418;7.382;2022-12-10T01:00:40;47.44;;;44.59;;
73154;SDS011;61364;52.418;7.382;2022-12-10T01:03:06;64.60;;;58.72;;
73154;SDS011;61364;52.418;7.382;2022-12-10T01:05:32;50.37;;;46.62;;
73154;SDS011;61364;52.418;7.382;2022-12-10T01:07:58;92.94;;;81.24;;
73154;SDS011;61364;52.418;7.382;2022-12-10T01:10:24;47.86;;;45.09;;
73154;SDS011;61364;52.418;7.382;2022-12-10T01:12:50;44.84;;;42.48;;
73154;SDS011;61364;52.418;7.382;2022-12-10T01:15:36;45.67;;;42.95;;
73154;SDS011;61364;52.418;7.382;2022-12-10T01:18:09;44.45;;;41.65;;
73154;SDS011;61364;52.418;7.382;2022-12-10T01:20:35;41.46;;;39.88;;
73154;SDS011;61364;52.418;7.382;2022-12-10T01:23:02;44.66;;;41.97;;
73154;SDS011;61364;52.418;7.382;2022-12-10T01:25:27;43.91;;;41.89;;
73154;SDS011;61364;52.418;7.382;2022-12-10T01:27:53;42.81;;;40.77;;
73154;SDS011;61364;52.418;7.382;2022-12-10T01:30:36;42.78;;;40.95;;
73154;SDS011;61364;52.418;7.382;2022-12-10T01:33:02;43.10;;;40.90;;
73154;SDS011;61364;52.418;7.382;2022-12-10T01:35:31;42.52;;;40.31;;
73154;SDS011;61364;52.418;7.382;2022-12-10T01:38:00;41.73;;;39.58;;
73154;SDS011;61364;52.418;7.382;2022-12-10T01:40:26;42.61;;;40.20;;
73154;SDS011;61364;52.418;7.382;2022-12-10T01:42:52;39.90;;;38.36;;
73154;SDS011;61364;52.418;7.382;2022-12-10T01:51:08;37.93;;;36.66;;
73154;SDS011;61364;52.418;7.382;2022-12-10T01:53:35;39.06;;;37.07;;
73154;SDS011;61364;52.418;7.382;2022-12-10T01:56:08;49.33;;;45.40;;
73154;SDS011;61364;52.418;7.382;2022-12-10T01:58:34;44.38;;;41.87;;
73154;SDS011;61364;52.418;7.382;2022-12-10T02:09:23;41.68;;;39.95;;
73154;SDS011;61364;52.418;7.382;2022-12-10T02:11:57;42.85;;;40.59;;
73154;SDS011;61364;52.418;7.382;2022-12-10T02:17:16;39.88;;;38.16;;
73154;SDS011;61364;52.418;7.382;2022-12-10T02:19:54;40.14;;;38.87;;
73154;SDS011;61364;52.418;7.382;2022-12-10T02:22:24;49.51;;;47.07;;
73154;SDS011;61364;52.418;7.382;2022-12-10T02:24:52;45.99;;;44.39;;
73154;SDS011;61364;52.418;7.382;2022-12-10T02:27:27;39.82;;;38.44;;
73154;SDS011;61364;52.418;7.382;2022-12-10T02:29:56;39.06;;;38.13;;
73154;SDS011;61364;52.418;7.382;2022-12-10T02:32:33;41.19;;;39.35;;
73154;SDS011;61364;52.418;7.382;2022-12-10T02:35:05;41.31;;;39.93;;
73154;SDS011;61364;52.418;7.382;2022-12-10T02:40:24;40.81;;;39.23;;
73154;SDS011;61364;52.418;7.382;2022-12-10T02:43:00;38.76;;;37.49;;
73154;SDS011;61364;52.418;7.382;2022-12-10T02:45:26;38.52;;;37.35;;
73154;SDS011;61364;52.418;7.382;2022-12-10T02:48:01;39.27;;;37.69;;
73154;SDS011;61364;52.418;7.382;2022-12-10T02:50:29;37.66;;;36.27;;
73154;SDS011;61364;52.418;7.382;2022-12-10T02:52:55;38.03;;;36.45;;
73154;SDS011;61364;52.418;7.382;2022-12-10T02:55:47;37.81;;;36.40;;
73154;SDS011;61364;52.418;7.382;2022-12-10T03:01:09;36.21;;;35.50;;
73154;SDS011;61364;52.418;7.382;2022-12-10T03:03:43;37.79;;;36.69;;
73154;SDS011;61364;52.418;7.382;2022-12-10T03:06:21;38.05;;;36.32;;
73154;SDS011;61364;52.418;7.382;2022-12-10T03:11:21;43.73;;;43.35;;
73154;SDS011;61364;52.418;7.382;2022-12-10T03:16:39;39.73;;;38.88;;
73154;SDS011;61364;52.418;7.382;2022-12-10T03:19:10;39.42;;;38.73;;
73154;SDS011;61364;52.418;7.382;2022-12-10T03:24:36;38.76;;;37.72;;
73154;SDS011;61364;52.418;7.382;2022-12-10T03:27:03;38.65;;;37.29;;
73154;SDS011;61364;52.418;7.382;2022-12-10T03:32:25;36.91;;;36.32;;
73154;SDS011;61364;52.418;7.382;2022-12-10T03:37:46;38.73;;;37.63;;
73154;SDS011;61364;52.418;7.382;2022-12-10T03:40:18;36.80;;;36.11;;
73154;SDS011;61364;52.418;7.382;2022-12-10T03:42:46;37.33;;;36.57;;
73154;SDS011;61364;52.418;7.382;2022-12-10T03:45:13;37.21;;;36.59;;
73154;SDS011;61364;52.418;7.382;2022-12-10T03:47:40;35.30;;;34.63;;
73154;SDS011;61364;52.418;7.382;2022-12-10T03:55:58;40.89;;;40.35;;
73154;SDS011;61364;52.418;7.382;2022-12-10T03:58:23;40.91;;;39.69;;
73154;SDS011;61364;52.418;7.382;2022-12-10T04:00:51;39.83;;;38.43;;
73154;SDS011;61364;52.418;7.382;2022-12-10T04:03:17;39.04;;;38.19;;
73154;SDS011;61364;52.418;7.382;2022-12-10T04:05:44;40.01;;;39.70;;
73154;SDS011;61364;52.418;7.382;2022-12-10T04:08:10;39.33;;;38.78;;
73154;SDS011;61364;52.418;7.382;2022-12-10T04:10:36;43.52;;;43.22;;
73154;SDS011;61364;52.418;7.382;2022-12-10T04:15:57;40.08;;;38.94;;
73154;SDS011;61364;52.418;7.382;2022-12-10T04:18:49;38.32;;;37.04;;
73154;SDS011;61364;52.418;7.382;2022-12-10T04:21:16;38.24;;;37.02;;
73154;SDS011;61364;52.418;7.382;2022-12-10T04:24:00;39.71;;;38.60;;
73154;SDS011;61364;52.418;7.382;2022-12-10T04:27:10;40.70;;;39.99;;
73154;SDS011;61364;52.418;7.382;2022-12-10T04:29:36;41.14;;;39.99;;
73154;SDS011;61364;52.418;7.382;2022-12-10T04:32:02;39.78;;;39.04;;
73154;SDS011;61364;52.418;7.382;2022-12-10T04:37:04;37.56;;;36.93;;
73154;SDS011;61364;52.418;7.382;2022-12-10T04:39:42;35.69;;;34.93;;
73154;SDS011;61364;52.418;7.382;2022-12-10T04:42:07;36.86;;;35.81;;
73154;SDS011;61364;52.418;7.382;2022-12-10T04:44:34;35.58;;;34.84;;
73154;SDS011;61364;52.418;7.382;2022-12-10T04:46:59;36.61;;;35.10;;
73154;SDS011;61364;52.418;7.382;2022-12-10T04:49:33;36.63;;;35.61;;
73154;SDS011;61364;52.418;7.382;2022-12-10T04:51:59;35.49;;;34.42;;
73154;SDS011;61364;52.418;7.382;2022-12-10T04:54:25;35.71;;;34.75;;
73154;SDS011;61364;52.418;7.382;2022-12-10T04:56:51;35.52;;;34.26;;
73154;SDS011;61364;52.418;7.382;2022-12-10T04:59:18;36.05;;;34.44;;
73154;SDS011;61364;52.418;7.382;2022-12-10T05:01:44;36.21;;;35.02;;
73154;SDS011;61364;52.418;7.382;2022-12-10T05:04:12;36.88;;;35.59;;
73154;SDS011;61364;52.418;7.382;2022-12-10T05:06:40;37.83;;;36.60;;
73154;SDS011;61364;52.418;7.382;2022-12-10T05:09:05;36.34;;;35.38;;
73154;SDS011;61364;52.418;7.382;2022-12-10T05:11:31;37.99;;;37.06;;
73154;SDS011;61364;52.418;7.382;2022-12-10T05:13:57;38.04;;;37.57;;
73154;SDS011;61364;52.418;7.382;2022-12-10T05:16:25;37.41;;;36.71;;
73154;SDS011;61364;52.418;7.382;2022-12-10T05:19:01;37.41;;;36.42;;
73154;SDS011;61364;52.418;7.382;2022-12-10T05:21:27;35.49;;;34.76;;
73154;SDS011;61364;52.418;7.382;2022-12-10T05:24:14;37.92;;;36.83;;
73154;SDS011;61364;52.418;7.382;2022-12-10T05:26:40;37.09;;;35.84;;
73154;SDS011;61364;52.418;7.382;2022-12-10T05:29:20;36.60;;;35.23;;
73154;SDS011;61364;52.418;7.382;2022-12-10T05:31:46;36.61;;;35.21;;
73154;SDS011;61364;52.418;7.382;2022-12-10T05:34:11;35.81;;;34.64;;
73154;SDS011;61364;52.418;7.382;2022-12-10T05:36:37;34.39;;;33.39;;
73154;SDS011;61364;52.418;7.382;2022-12-10T05:39:03;36.01;;;35.14;;
73154;SDS011;61364;52.418;7.382;2022-12-10T05:41:33;36.36;;;34.94;;
73154;SDS011;61364;52.418;7.382;2022-12-10T05:44:00;38.64;;;36.87;;
73154;SDS011;61364;52.418;7.382;2022-12-10T05:46:37;36.77;;;35.55;;
73154;SDS011;61364;52.418;7.382;2022-12-10T05:49:04;35.98;;;35.08;;
73154;SDS011;61364;52.418;7.382;2022-12-10T05:51:31;36.36;;;35.12;;
73154;SDS011;61364;52.418;7.382;2022-12-10T05:54:12;35.77;;;34.52;;
73154;SDS011;61364;52.418;7.382;2022-12-10T05:56:38;35.01;;;33.93;;
73154;SDS011;61364;52.418;7.382;2022-12-10T06:02:06;37.29;;;35.91;;
73154;SDS011;61364;52.418;7.382;2022-12-10T06:07:06;36.24;;;35.30;;
73154;SDS011;61364;52.418;7.382;2022-12-10T06:09:39;36.61;;;35.46;;
73154;SDS011;61364;52.418;7.382;2022-12-10T06:12:05;37.40;;;36.36;;
73154;SDS011;61364;52.418;7.382;2022-12-10T06:14:30;38.58;;;37.87;;
73154;SDS011;61364;52.418;7.382;2022-12-10T06:16:56;37.82;;;37.16;;
73154;SDS011;61364;52.418;7.382;2022-12-10T06:19:28;36.19;;;35.46;;
73154;SDS011;61364;52.418;7.382;2022-12-10T06:21:54;37.27;;;36.49;;
73154;SDS011;61364;52.418;7.382;2022-12-10T06:24:19;39.35;;;38.80;;
73154;SDS011;61364;52.418;7.382;2022-12-10T06:29:46;38.10;;;37.18;;
73154;SDS011;61364;52.418;7.382;2022-12-10T06:32:11;38.59;;;37.77;;
73154;SDS011;61364;52.418;7.382;2022-12-10T06:34:37;39.75;;;39.02;;
73154;SDS011;61364;52.418;7.382;2022-12-10T06:39:53;39.36;;;38.26;;
73154;SDS011;61364;52.418;7.382;2022-12-10T06:42:22;39.01;;;38.16;;
73154;SDS011;61364;52.418;7.382;2022-12-10T06:44:47;39.83;;;38.76;;
73154;SDS011;61364;52.418;7.382;2022-12-10T06:49:43;40.50;;;39.46;;
73154;SDS011;61364;52.418;7.382;2022-12-10T06:52:09;45.71;;;43.96;;
73154;SDS011;61364;52.418;7.382;2022-12-10T06:54:35;44.24;;;42.72;;
73154;SDS011;61364;52.418;7.382;2022-12-10T06:57:02;43.70;;;41.83;;
73154;SDS011;61364;52.418;7.382;2022-12-10T06:59:28;44.10;;;42.66;;
73154;SDS011;61364;52.418;7.382;2022-12-10T07:01:54;46.37;;;44.53;;
73154;SDS011;61364;52.418;7.382;2022-12-10T07:04:19;44.52;;;42.68;;
73154;SDS011;61364;52.418;7.382;2022-12-10T07:06:52;45.76;;;44.31;;
73154;SDS011;61364;52.418;7.382;2022-12-10T07:09:18;47.92;;;46.01;;
73154;SDS011;61364;52.418;7.382;2022-12-10T07:11:43;45.63;;;44.52;;
73154;SDS011;61364;52.418;7.382;2022-12-10T07:14:13;44.51;;;43.24;;
73154;SDS011;61364;52.418;7.382;2022-12-10T07:16:40;39.71;;;38.95;;
73154;SDS011;61364;52.418;7.382;2022-12-10T07:19:08;37.38;;;36.83;;
73154;SDS011;61364;52.418;7.382;2022-12-10T07:21:35;38.41;;;37.78;;
73154;SDS011;61364;52.418;7.382;2022-12-10T07:26:53;45.98;;;45.25;;
73154;SDS011;61364;52.418;7.382;2022-12-10T07:29:25;46.66;;;46.19;;
73154;SDS011;61364;52.418;7.382;2022-12-10T07:31:52;44.35;;;43.72;;
73154;SDS011;61364;52.418;7.382;2022-12-10T07:34:17;41.97;;;41.30;;
73154;SDS011;61364;52.418;7.382;2022-12-10T07:36:43;43.49;;;42.54;;
73154;SDS011;61364;52.418;7.382;2022-12-10T07:39:09;46.40;;;45.48;;
73154;SDS011;61364;52.418;7.382;2022-12-10T07:41:43;46.22;;;45.77;;
73154;SDS011;61364;52.418;7.382;2022-12-10T07:44:11;49.00;;;48.64;;
73154;SDS011;61364;52.418;7.382;2022-12-10T07:46:49;47.13;;;46.54;;
73154;SDS011;61364;52.418;7.382;2022-12-10T07:49:15;47.07;;;46.38;;
73154;SDS011;61364;52.418;7.382;2022-12-10T07:51:44;47.24;;;46.59;;
73154;SDS011;61364;52.418;7.382;2022-12-10T07:54:10;49.26;;;48.67;;
73154;SDS011;61364;52.418;7.382;2022-12-10T07:56:36;50.92;;;50.53;;
73154;SDS011;61364;52.418;7.382;2022-12-10T07:59:20;52.63;;;52.48;;
73154;SDS011;61364;52.418;7.382;2022-12-10T08:01:46;59.28;;;59.21;;
73154;SDS011;61364;52.418;7.382;2022-12-10T08:04:12;54.40;;;54.28;;
73154;SDS011;61364;52.418;7.382;2022-12-10T08:06:38;43.87;;;43.19;;
73154;SDS011;61364;52.418;7.382;2022-12-10T08:09:04;42.61;;;41.62;;
73154;SDS011;61364;52.418;7.382;2022-12-10T08:11:29;41.54;;;40.97;;
73154;SDS011;61364;52.418;7.382;2022-12-10T08:13:55;42.07;;;41.04;;
73154;SDS011;61364;52.418;7.382;2022-12-10T08:16:29;42.61;;;41.77;;
73154;SDS011;61364;52.418;7.382;2022-12-10T08:21:59;41.41;;;40.43;;
73154;SDS011;61364;52.418;7.382;2022-12-10T08:24:32;39.95;;;39.21;;
73154;SDS011;61364;52.418;7.382;2022-12-10T08:26:58;43.05;;;42.17;;
73154;SDS011;61364;52.418;7.382;2022-12-10T08:29:40;41.92;;;41.02;;
73154;SDS011;61364;52.418;7.382;2022-12-10T08:32:06;42.76;;;41.95;;
73154;SDS011;61364;52.418;7.382;2022-12-10T08:34:31;43.77;;;42.88;;
73154;SDS011;61364;52.418;7.382;2022-12-10T08:36:56;42.62;;;41.79;;
73154;SDS011;61364;52.418;7.382;2022-12-10T08:39:22;45.63;;;45.43;;
73154;SDS011;61364;52.418;7.382;2022-12-10T08:44:24;44.53;;;44.16;;
73154;SDS011;61364;52.418;7.382;2022-12-10T08:46:50;44.89;;;44.67;;
73154;SDS011;61364;52.418;7.382;2022-12-10T08:49:22;48.61;;;48.30;;
73154;SDS011;61364;52.418;7.382;2022-12-10T08:51:48;45.42;;;45.20;;
73154;SDS011;61364;52.418;7.382;2022-12-10T08:54:22;45.16;;;45.08;;
73154;SDS011;61364;52.418;7.382;2022-12-10T08:56:48;43.86;;;43.83;;
73154;SDS011;61364;52.418;7.382;2022-12-10T09:02:09;43.22;;;43.11;;
73154;SDS011;61364;52.418;7.382;2022-12-10T09:04:47;45.01;;;44.57;;
73154;SDS011;61364;52.418;7.382;2022-12-10T09:07:15;46.68;;;46.59;;
73154;SDS011;61364;52.418;7.382;2022-12-10T09:09:40;47.70;;;47.65;;
73154;SDS011;61364;52.418;7.382;2022-12-10T09:12:06;49.21;;;49.16;;
73154;SDS011;61364;52.418;7.382;2022-12-10T09:14:43;46.66;;;46.63;;
73154;SDS011;61364;52.418;7.382;2022-12-10T09:17:08;43.72;;;43.57;;
73154;SDS011;61364;52.418;7.382;2022-12-10T09:19:34;43.00;;;42.57;;
73154;SDS011;61364;52.418;7.382;2022-12-10T09:22:00;43.38;;;43.13;;
73154;SDS011;61364;52.418;7.382;2022-12-10T09:24:26;42.73;;;41.92;;
73154;SDS011;61364;52.418;7.382;2022-12-10T09:26:52;41.13;;;40.36;;
73154;SDS011;61364;52.418;7.382;2022-12-10T09:29:29;41.07;;;40.33;;
73154;SDS011;61364;52.418;7.382;2022-12-10T09:31:55;42.43;;;41.95;;
73154;SDS011;61364;52.418;7.382;2022-12-10T09:34:21;47.56;;;46.72;;
73154;SDS011;61364;52.418;7.382;2022-12-10T09:36:46;48.85;;;48.02;;
73154;SDS011;61364;52.418;7.382;2022-12-10T09:39:12;48.74;;;47.65;;
73154;SDS011;61364;52.418;7.382;2022-12-10T09:44:36;49.37;;;48.97;;
73154;SDS011;61364;52.418;7.382;2022-12-10T09:47:07;53.05;;;52.77;;
73154;SDS011;61364;52.418;7.382;2022-12-10T09:49:47;70.08;;;68.12;;
73154;SDS011;61364;52.418;7.382;2022-12-10T09:52:21;65.49;;;64.47;;
73154;SDS011;61364;52.418;7.382;2022-12-10T09:54:50;56.37;;;55.91;;
73154;SDS011;61364;52.418;7.382;2022-12-10T09:57:22;75.89;;;74.73;;
73154;SDS011;61364;52.418;7.382;2022-12-10T09:59:51;73.98;;;73.17;;
73154;SDS011;61364;52.418;7.382;2022-12-10T10:02:31;66.27;;;65.68;;
73154;SDS011;61364;52.418;7.382;2022-12-10T10:07:29;61.18;;;60.54;;
73154;SDS011;61364;52.418;7.382;2022-12-10T10:15:48;50.85;;;50.11;;
73154;SDS011;61364;52.418;7.382;2022-12-10T10:18:17;56.45;;;55.84;;
73154;SDS011;61364;52.418;7.382;2022-12-10T10:20:49;51.05;;;50.48;;
73154;SDS011;61364;52.418;7.382;2022-12-10T10:23:21;48.53;;;47.90;;
73154;SDS011;61364;52.418;7.382;2022-12-10T10:25:47;50.16;;;49.42;;
73154;SDS011;61364;52.418;7.382;2022-12-10T10:28:21;49.66;;;49.04;;
73154;SDS011;61364;52.418;7.382;2022-12-10T10:30:48;50.13;;;49.58;;
73154;SDS011;61364;52.418;7.382;2022-12-10T10:39:39;53.48;;;52.24;;
73154;SDS011;61364;52.418;7.382;2022-12-10T10:42:08;51.78;;;50.93;;
73154;SDS011;61364;52.418;7.382;2022-12-10T10:44:35;54.51;;;53.35;;
73154;SDS011;61364;52.418;7.382;2022-12-10T10:47:02;50.96;;;49.89;;
73154;SDS011;61364;52.418;7.382;2022-12-10T10:58:21;63.25;;;59.74;;
73154;SDS011;61364;52.418;7.382;2022-12-10T11:04:03;64.39;;;61.54;;
73154;SDS011;61364;52.418;7.382;2022-12-10T11:06:29;67.36;;;63.57;;
73154;SDS011;61364;52.418;7.382;2022-12-10T11:12:03;55.55;;;54.33;;
73154;SDS011;61364;52.418;7.382;2022-12-10T11:14:45;56.45;;;54.55;;
73154;SDS011;61364;52.418;7.382;2022-12-10T11:22:29;57.43;;;56.49;;
73154;SDS011;61364;52.418;7.382;2022-12-10T11:24:56;57.49;;;56.56;;
73154;SDS011;61364;52.418;7.382;2022-12-10T11:30:26;53.69;;;52.61;;
73154;SDS011;61364;52.418;7.382;2022-12-10T11:33:09;54.31;;;52.98;;
73154;SDS011;61364;52.418;7.382;2022-12-10T11:50:53;53.77;;;53.10;;
73154;SDS011;61364;52.418;7.382;2022-12-10T12:04:38;50.54;;;49.61;;
73154;SDS011;61364;52.418;7.382;2022-12-10T12:13:16;48.87;;;48.11;;
73154;SDS011;61364;52.418;7.382;2022-12-10T12:21:41;56.36;;;55.49;;
73154;SDS011;61364;52.418;7.382;2022-12-10T12:27:17;57.17;;;55.56;;
73154;SDS011;61364;52.418;7.382;2022-12-10T12:32:40;62.54;;;60.99;;
73154;SDS011;61364;52.418;7.382;2022-12-10T12:46:24;64.25;;;62.96;;
73154;SDS011;61364;52.418;7.382;2022-12-10T12:49:01;52.72;;;51.93;;
73154;SDS011;61364;52.418;7.382;2022-12-10T12:51:37;59.92;;;58.88;;
73154;SDS011;61364;52.418;7.382;2022-12-10T12:54:07;70.90;;;70.14;;
73154;SDS011;61364;52.418;7.382;2022-12-10T13:02:42;54.32;;;52.61;;
73154;SDS011;61364;52.418;7.382;2022-12-10T13:33:20;62.14;;;57.08;;
73154;SDS011;61364;52.418;7.382;2022-12-10T13:38:57;62.82;;;57.32;;
73154;SDS011;61364;52.418;7.382;2022-12-10T13:41:41;62.73;;;57.85;;
73154;SDS011;61364;52.418;7.382;2022-12-10T13:53:16;76.50;;;68.91;;
73154;SDS011;61364;52.418;7.382;2022-12-10T14:07:30;80.07;;;73.11;;
73154;SDS011;61364;52.418;7.382;2022-12-10T14:09:57;72.55;;;65.51;;
73154;SDS011;61364;52.418;7.382;2022-12-10T14:15:37;71.35;;;63.71;;
73154;SDS011;61364;52.418;7.382;2022-12-10T14:18:09;76.35;;;65.16;;
73154;SDS011;61364;52.418;7.382;2022-12-10T14:20:55;72.78;;;64.73;;
73154;SDS011;61364;52.418;7.382;2022-12-10T14:23:28;69.58;;;61.67;;
73154;SDS011;61364;52.418;7.382;2022-12-10T14:31:44;75.37;;;67.70;;
73154;SDS011;61364;52.418;7.382;2022-12-10T14:37:10;82.62;;;71.75;;
73154;SDS011;61364;52.418;7.382;2022-12-10T14:39:40;75.88;;;66.29;;
73154;SDS011;61364;52.418;7.382;2022-12-10T14:42:06;80.85;;;70.05;;
73154;SDS011;61364;52.418;7.382;2022-12-10T14:44:46;77.41;;;68.00;;
73154;SDS011;61364;52.418;7.382;2022-12-10T14:47:18;74.44;;;63.96;;
73154;SDS011;61364;52.418;7.382;2022-12-10T14:49:45;78.51;;;66.19;;
73154;SDS011;61364;52.418;7.382;2022-12-10T14:52:17;80.26;;;68.90;;
73154;SDS011;61364;52.418;7.382;2022-12-10T14:54:44;76.14;;;64.95;;
73154;SDS011;61364;52.418;7.382;2022-12-10T14:57:30;74.85;;;62.78;;
73154;SDS011;61364;52.418;7.382;2022-12-10T15:00:07;73.85;;;62.64;;
73154;SDS011;61364;52.418;7.382;2022-12-10T15:02:38;70.70;;;60.83;;
73154;SDS011;61364;52.418;7.382;2022-12-10T15:08:14;77.40;;;66.11;;
73154;SDS011;61364;52.418;7.382;2022-12-10T15:10:43;77.39;;;67.17;;
73154;SDS011;61364;52.418;7.382;2022-12-10T15:13:44;85.96;;;74.88;;
73154;SDS011;61364;52.418;7.382;2022-12-10T15:16:20;106.25;;;100.57;;
73154;SDS011;61364;52.418;7.382;2022-12-10T15:18:53;90.41;;;82.54;;
73154;SDS011;61364;52.418;7.382;2022-12-10T15:21:21;80.49;;;71.43;;
73154;SDS011;61364;52.418;7.382;2022-12-10T15:26:51;80.55;;;65.84;;
73154;SDS011;61364;52.418;7.382;2022-12-10T15:32:10;90.65;;;77.45;;
73154;SDS011;61364;52.418;7.382;2022-12-10T15:34:59;92.27;;;77.62;;
73154;SDS011;61364;52.418;7.382;2022-12-10T15:37:27;102.06;;;86.85;;
73154;SDS011;61364;52.418;7.382;2022-12-10T15:39:59;102.93;;;85.80;;
73154;SDS011;61364;52.418;7.382;2022-12-10T15:42:28;81.25;;;66.71;;
73154;SDS011;61364;52.418;7.382;2022-12-10T15:50:42;86.99;;;71.79;;
73154;SDS011;61364;52.418;7.382;2022-12-10T15:56:12;80.98;;;67.64;;
73154;SDS011;61364;52.418;7.382;2022-12-10T16:01:24;82.74;;;67.74;;
73154;SDS011;61364;52.418;7.382;2022-12-10T16:06:35;76.67;;;61.52;;
73154;SDS011;61364;52.418;7.382;2022-12-10T16:09:00;73.32;;;60.29;;
73154;SDS011;61364;52.418;7.382;2022-12-10T16:14:29;76.26;;;62.25;;
73154;SDS011;61364;52.418;7.382;2022-12-10T16:16:55;76.87;;;61.73;;
73154;SDS011;61364;52.418;7.382;2022-12-10T16:19:22;80.66;;;63.91;;
73154;SDS011;61364;52.418;7.382;2022-12-10T16:21:47;79.62;;;64.02;;
73154;SDS011;61364;52.418;7.382;2022-12-10T16:26:55;79.61;;;64.64;;
73154;SDS011;61364;52.418;7.382;2022-12-10T16:29:29;79.89;;;63.66;;
73154;SDS011;61364;52.418;7.382;2022-12-10T16:31:54;85.29;;;67.86;;
73154;SDS011;61364;52.418;7.382;2022-12-10T16:34:20;85.62;;;68.18;;
73154;SDS011;61364;52.418;7.382;2022-12-10T16:36:45;90.44;;;69.92;;
73154;SDS011;61364;52.418;7.382;2022-12-10T16:39:11;89.17;;;69.18;;
73154;SDS011;61364;52.418;7.382;2022-12-10T16:41:37;97.73;;;73.88;;
73154;SDS011;61364;52.418;7.382;2022-12-10T16:44:03;99.06;;;75.43;;
73154;SDS011;61364;52.418;7.382;2022-12-10T16:46:42;93.25;;;72.72;;
73154;SDS011;61364;52.418;7.382;2022-12-10T16:49:08;99.53;;;76.38;;
73154;SDS011;61364;52.418;7.382;2022-12-10T16:51:34;93.96;;;73.07;;
73154;SDS011;61364;52.418;7.382;2022-12-10T16:54:00;94.62;;;73.33;;
73154;SDS011;61364;52.418;7.382;2022-12-10T16:59:15;93.39;;;72.92;;
73154;SDS011;61364;52.418;7.382;2022-12-10T17:01:40;94.72;;;73.52;;
73154;SDS011;61364;52.418;7.382;2022-12-10T17:04:08;94.00;;;73.45;;
73154;SDS011;61364;52.418;7.382;2022-12-10T17:06:33;94.97;;;73.95;;
73154;SDS011;61364;52.418;7.382;2022-12-10T17:08:59;93.20;;;72.44;;
73154;SDS011;61364;52.418;7.382;2022-12-10T17:14:25;97.97;;;73.84;;
73154;SDS011;61364;52.418;7.382;2022-12-10T17:16:53;90.59;;;70.03;;
73154;SDS011;61364;52.418;7.382;2022-12-10T17:19:20;89.10;;;68.39;;
73154;SDS011;61364;52.418;7.382;2022-12-10T17:21:46;89.65;;;68.45;;
73154;SDS011;61364;52.418;7.382;2022-12-10T17:24:12;90.60;;;69.36;;
73154;SDS011;61364;52.418;7.382;2022-12-10T17:26:38;93.10;;;71.76;;
73154;SDS011;61364;52.418;7.382;2022-12-10T17:35:05;92.42;;;69.69;;
73154;SDS011;61364;52.418;7.382;2022-12-10T17:37:34;86.59;;;66.61;;
73154;SDS011;61364;52.418;7.382;2022-12-10T17:40:17;85.44;;;67.56;;
73154;SDS011;61364;52.418;7.382;2022-12-10T17:42:43;86.37;;;66.63;;
73154;SDS011;61364;52.418;7.382;2022-12-10T17:45:13;88.14;;;68.11;;
73154;SDS011;61364;52.418;7.382;2022-12-10T17:47:40;109.91;;;87.30;;
73154;SDS011;61364;52.418;7.382;2022-12-10T17:50:25;95.80;;;77.12;;
73154;SDS011;61364;52.418;7.382;2022-12-10T17:53:22;86.40;;;73.52;;
73154;SDS011;61364;52.418;7.382;2022-12-10T17:55:55;85.39;;;71.12;;
73154;SDS011;61364;52.418;7.382;2022-12-10T17:58:23;85.42;;;68.01;;
73154;SDS011;61364;52.418;7.382;2022-12-10T18:03:52;79.22;;;64.25;;
73154;SDS011;61364;52.418;7.382;2022-12-10T18:06:20;82.97;;;68.34;;
73154;SDS011;61364;52.418;7.382;2022-12-10T18:11:49;74.77;;;62.31;;
73154;SDS011;61364;52.418;7.382;2022-12-10T18:14:18;74.59;;;62.64;;
73154;SDS011;61364;52.418;7.382;2022-12-10T18:16:43;71.95;;;62.37;;
73154;SDS011;61364;52.418;7.382;2022-12-10T18:19:13;70.95;;;62.50;;
73154;SDS011;61364;52.418;7.382;2022-12-10T18:21:46;68.55;;;55.41;;
73154;SDS011;61364;52.418;7.382;2022-12-10T18:24:12;67.43;;;54.11;;
73154;SDS011;61364;52.418;7.382;2022-12-10T18:26:40;63.47;;;51.19;;
73154;SDS011;61364;52.418;7.382;2022-12-10T18:29:17;67.07;;;53.28;;
73154;SDS011;61364;52.418;7.382;2022-12-10T18:31:43;69.24;;;56.50;;
73154;SDS011;61364;52.418;7.382;2022-12-10T18:40:04;71.11;;;58.00;;
73154;SDS011;61364;52.418;7.382;2022-12-10T18:42:30;67.25;;;56.83;;
73154;SDS011;61364;52.418;7.382;2022-12-10T18:45:11;77.64;;;64.92;;
73154;SDS011;61364;52.418;7.382;2022-12-10T18:47:36;92.92;;;81.32;;
73154;SDS011;61364;52.418;7.382;2022-12-10T18:50:03;71.25;;;60.00;;
73154;SDS011;61364;52.418;7.382;2022-12-10T18:55:28;61.80;;;51.87;;
73154;SDS011;61364;52.418;7.382;2022-12-10T18:57:54;75.00;;;62.11;;
73154;SDS011;61364;52.418;7.382;2022-12-10T19:02:48;58.32;;;48.97;;
73154;SDS011;61364;52.418;7.382;2022-12-10T19:05:14;58.94;;;47.53;;
73154;SDS011;61364;52.418;7.382;2022-12-10T19:07:40;56.67;;;47.16;;
73154;SDS011;61364;52.418;7.382;2022-12-10T19:10:16;58.71;;;47.72;;
73154;SDS011;61364;52.418;7.382;2022-12-10T19:12:43;66.68;;;54.95;;
73154;SDS011;61364;52.418;7.382;2022-12-10T19:15:17;105.44;;;89.20;;
73154;SDS011;61364;52.418;7.382;2022-12-10T19:17:44;72.07;;;61.47;;
73154;SDS011;61364;52.418;7.382;2022-12-10T19:20:14;66.66;;;55.10;;
73154;SDS011;61364;52.418;7.382;2022-12-10T19:22:52;62.77;;;51.32;;
73154;SDS011;61364;52.418;7.382;2022-12-10T19:28:14;59.19;;;49.47;;
73154;SDS011;61364;52.418;7.382;2022-12-10T19:30:40;55.09;;;46.39;;
73154;SDS011;61364;52.418;7.382;2022-12-10T19:33:06;55.77;;;46.81;;
73154;SDS011;61364;52.418;7.382;2022-12-10T19:35:32;56.69;;;47.70;;
73154;SDS011;61364;52.418;7.382;2022-12-10T19:37:58;60.35;;;48.82;;
73154;SDS011;61364;52.418;7.382;2022-12-10T19:42:52;60.16;;;49.85;;